Dayton, Nevada
Current Conditions -  °F | °C
As of 10:35 AM on Sunday 21 Dec 2014 (Local Time) from KCXP Reporting Station
Clear Clear  
Wind Chill: 14°   Ceiling: Unl
Heat Index: 14°   Visibility: 10mi
Dew Point:   Wind: 17mph
Humidity: 48%   Direction: 280°W
Pressure: 30.21"   Gusts: 38mph
Location:  39.24°N, 119.6°W
Report Text: KCXP 211835Z AUTO 28015G33KT 10SM CLR 14/03 A3021 RMK AO2
Loading
Personal Weather Stations






























Interactive Weather Map New forecast layout! Learn more

10-Day Weather Forecast

Advertisements
Track Severe Weather on mobile